sensor_id;sensor_type;location;lat;lon;timestamp;temperature;humidity
21580;DHT22;10951;59.656;9.666;2022-08-11T00:01:18;18.00;56.40
21580;DHT22;10951;59.656;9.666;2022-08-11T00:03:49;17.90;56.70
21580;DHT22;10951;59.656;9.666;2022-08-11T00:06:28;17.90;56.80
21580;DHT22;10951;59.656;9.666;2022-08-11T00:08:57;17.80;56.80
21580;DHT22;10951;59.656;9.666;2022-08-11T00:11:36;17.70;57.10
21580;DHT22;10951;59.656;9.666;2022-08-11T00:14:11;17.60;57.30
21580;DHT22;10951;59.656;9.666;2022-08-11T00:16:39;17.50;57.30
21580;DHT22;10951;59.656;9.666;2022-08-11T00:19:08;17.40;57.30
21580;DHT22;10951;59.656;9.666;2022-08-11T00:21:40;17.30;58.20
21580;DHT22;10951;59.656;9.666;2022-08-11T00:24:33;17.30;58.00
21580;DHT22;10951;59.656;9.666;2022-08-11T00:27:31;17.20;58.00
21580;DHT22;10951;59.656;9.666;2022-08-11T00:29:59;17.10;58.80
21580;DHT22;10951;59.656;9.666;2022-08-11T00:32:27;17.00;58.70
21580;DHT22;10951;59.656;9.666;2022-08-11T00:34:55;16.90;58.90
21580;DHT22;10951;59.656;9.666;2022-08-11T00:37:47;16.90;58.90
21580;DHT22;10951;59.656;9.666;2022-08-11T00:40:28;16.90;59.00
21580;DHT22;10951;59.656;9.666;2022-08-11T00:43:00;17.00;58.90
21580;DHT22;10951;59.656;9.666;2022-08-11T00:45:45;16.90;59.00
21580;DHT22;10951;59.656;9.666;2022-08-11T00:48:28;17.00;59.10
21580;DHT22;10951;59.656;9.666;2022-08-11T00:54:07;17.00;59.00
21580;DHT22;10951;59.656;9.666;2022-08-11T00:57:21;16.80;59.80
21580;DHT22;10951;59.656;9.666;2022-08-11T01:00:16;16.70;60.10
21580;DHT22;10951;59.656;9.666;2022-08-11T01:49:14;15.80;63.30
21580;DHT22;10951;59.656;9.666;2022-08-11T01:58:35;15.50;64.20
21580;DHT22;10951;59.656;9.666;2022-08-11T02:07:09;15.20;64.80
21580;DHT22;10951;59.656;9.666;2022-08-11T02:12:45;15.00;65.70
21580;DHT22;10951;59.656;9.666;2022-08-11T02:15:38;15.00;66.20
21580;DHT22;10951;59.656;9.666;2022-08-11T02:20:56;14.80;67.50
21580;DHT22;10951;59.656;9.666;2022-08-11T02:23:54;14.70;67.70
21580;DHT22;10951;59.656;9.666;2022-08-11T02:26:40;14.60;68.00
21580;DHT22;10951;59.656;9.666;2022-08-11T02:32:26;14.40;68.40
21580;DHT22;10951;59.656;9.666;2022-08-11T02:35:19;14.30;68.30
21580;DHT22;10951;59.656;9.666;2022-08-11T02:40:33;14.20;69.10
21580;DHT22;10951;59.656;9.666;2022-08-11T02:51:39;14.00;70.30
21580;DHT22;10951;59.656;9.666;2022-08-11T02:54:22;14.00;70.60
21580;DHT22;10951;59.656;9.666;2022-08-11T02:57:05;13.90;70.50
21580;DHT22;10951;59.656;9.666;2022-08-11T02:59:54;13.80;70.80
21580;DHT22;10951;59.656;9.666;2022-08-11T03:08:17;13.60;72.60
21580;DHT22;10951;59.656;9.666;2022-08-11T03:14:08;13.60;73.70
21580;DHT22;10951;59.656;9.666;2022-08-11T03:25:48;13.70;74.30
21580;DHT22;10951;59.656;9.666;2022-08-11T03:28:30;13.70;75.30
21580;DHT22;10951;59.656;9.666;2022-08-11T03:33:29;13.90;76.40
21580;DHT22;10951;59.656;9.666;2022-08-11T03:41:54;14.00;77.20
21580;DHT22;10951;59.656;9.666;2022-08-11T03:45:16;14.00;76.90
21580;DHT22;10951;59.656;9.666;2022-08-11T03:54:13;14.40;76.50
21580;DHT22;10951;59.656;9.666;2022-08-11T04:14:09;14.50;77.00
21580;DHT22;10951;59.656;9.666;2022-08-11T04:20:10;14.70;77.10
21580;DHT22;10951;59.656;9.666;2022-08-11T04:31:37;15.00;75.70
21580;DHT22;10951;59.656;9.666;2022-08-11T04:34:36;15.00;76.00
21580;DHT22;10951;59.656;9.666;2022-08-11T04:37:31;15.10;75.20
21580;DHT22;10951;59.656;9.666;2022-08-11T04:43:14;15.20;76.60
21580;DHT22;10951;59.656;9.666;2022-08-11T05:01:10;16.10;73.70
21580;DHT22;10951;59.656;9.666;2022-08-11T05:12:45;17.60;69.40
21580;DHT22;10951;59.656;9.666;2022-08-11T05:15:29;17.90;67.20
21580;DHT22;10951;59.656;9.666;2022-08-11T05:18:22;18.10;66.70
21580;DHT22;10951;59.656;9.666;2022-08-11T05:21:10;18.50;67.60
21580;DHT22;10951;59.656;9.666;2022-08-11T05:24:20;18.80;66.30
21580;DHT22;10951;59.656;9.666;2022-08-11T05:27:11;19.10;64.50
21580;DHT22;10951;59.656;9.666;2022-08-11T05:30:04;19.40;65.00
21580;DHT22;10951;59.656;9.666;2022-08-11T05:33:00;19.80;63.80
21580;DHT22;10951;59.656;9.666;2022-08-11T05:35:49;20.10;61.50
21580;DHT22;10951;59.656;9.666;2022-08-11T05:38:34;20.30;59.50
21580;DHT22;10951;59.656;9.666;2022-08-11T05:41:25;20.40;59.90
21580;DHT22;10951;59.656;9.666;2022-08-11T05:44:17;20.60;58.90
21580;DHT22;10951;59.656;9.666;2022-08-11T05:47:03;20.70;58.20
21580;DHT22;10951;59.656;9.666;2022-08-11T05:49:49;20.60;58.80
21580;DHT22;10951;59.656;9.666;2022-08-11T05:52:45;20.40;59.10
21580;DHT22;10951;59.656;9.666;2022-08-11T05:55:42;20.50;59.00
21580;DHT22;10951;59.656;9.666;2022-08-11T05:58:38;20.50;59.20
21580;DHT22;10951;59.656;9.666;2022-08-11T06:01:10;20.40;59.20
21580;DHT22;10951;59.656;9.666;2022-08-11T06:03:42;20.30;59.70
21580;DHT22;10951;59.656;9.666;2022-08-11T06:06:29;20.20;60.40
21580;DHT22;10951;59.656;9.666;2022-08-11T06:08:57;20.10;60.00
21580;DHT22;10951;59.656;9.666;2022-08-11T06:11:25;20.00;60.60
21580;DHT22;10951;59.656;9.666;2022-08-11T06:14:11;20.00;60.90
21580;DHT22;10951;59.656;9.666;2022-08-11T06:16:40;20.00;61.00
21580;DHT22;10951;59.656;9.666;2022-08-11T06:19:08;20.10;60.50
21580;DHT22;10951;59.656;9.666;2022-08-11T06:21:35;20.10;60.40
21580;DHT22;10951;59.656;9.666;2022-08-11T06:24:10;20.20;60.40
21580;DHT22;10951;59.656;9.666;2022-08-11T06:26:46;20.20;60.00
21580;DHT22;10951;59.656;9.666;2022-08-11T06:29:36;20.20;60.50
21580;DHT22;10951;59.656;9.666;2022-08-11T06:32:19;20.40;60.10
21580;DHT22;10951;59.656;9.666;2022-08-11T06:43:14;20.80;59.50
21580;DHT22;10951;59.656;9.666;2022-08-11T06:45:56;21.10;58.90
21580;DHT22;10951;59.656;9.666;2022-08-11T06:48:31;21.20;58.60
21580;DHT22;10951;59.656;9.666;2022-08-11T06:51:02;21.30;58.50
21580;DHT22;10951;59.656;9.666;2022-08-11T06:53:51;21.30;58.50
21580;DHT22;10951;59.656;9.666;2022-08-11T06:56:37;21.30;58.20
21580;DHT22;10951;59.656;9.666;2022-08-11T06:59:44;21.30;58.30
21580;DHT22;10951;59.656;9.666;2022-08-11T07:02:36;21.20;58.20
21580;DHT22;10951;59.656;9.666;2022-08-11T07:05:21;21.30;58.80
21580;DHT22;10951;59.656;9.666;2022-08-11T07:14:03;21.50;58.20
21580;DHT22;10951;59.656;9.666;2022-08-11T07:16:49;21.50;58.50
21580;DHT22;10951;59.656;9.666;2022-08-11T07:19:24;21.60;57.60
21580;DHT22;10951;59.656;9.666;2022-08-11T07:22:11;21.80;58.00
21580;DHT22;10951;59.656;9.666;2022-08-11T07:25:07;21.80;57.60
21580;DHT22;10951;59.656;9.666;2022-08-11T07:27:57;21.80;57.30
21580;DHT22;10951;59.656;9.666;2022-08-11T07:30:44;21.90;57.50
21580;DHT22;10951;59.656;9.666;2022-08-11T07:33:22;22.10;57.30
21580;DHT22;10951;59.656;9.666;2022-08-11T07:36:12;22.40;57.50
21580;DHT22;10951;59.656;9.666;2022-08-11T07:38:43;22.50;56.70
21580;DHT22;10951;59.656;9.666;2022-08-11T07:41:15;22.60;56.50
21580;DHT22;10951;59.656;9.666;2022-08-11T07:43:45;22.80;56.20
21580;DHT22;10951;59.656;9.666;2022-08-11T07:46:16;23.00;56.20
21580;DHT22;10951;59.656;9.666;2022-08-11T07:49:03;23.00;56.10
21580;DHT22;10951;59.656;9.666;2022-08-11T07:51:50;23.10;55.70
21580;DHT22;10951;59.656;9.666;2022-08-11T07:54:37;23.20;55.70
21580;DHT22;10951;59.656;9.666;2022-08-11T07:57:10;23.30;55.50
21580;DHT22;10951;59.656;9.666;2022-08-11T08:00:16;23.40;55.00
21580;DHT22;10951;59.656;9.666;2022-08-11T08:03:04;23.40;54.90
21580;DHT22;10951;59.656;9.666;2022-08-11T08:05:50;23.40;54.90
21580;DHT22;10951;59.656;9.666;2022-08-11T08:08:56;23.50;54.60
21580;DHT22;10951;59.656;9.666;2022-08-11T08:11:43;23.70;54.60
21580;DHT22;10951;59.656;9.666;2022-08-11T08:14:30;23.70;54.50
21580;DHT22;10951;59.656;9.666;2022-08-11T08:17:16;23.80;54.90
21580;DHT22;10951;59.656;9.666;2022-08-11T08:20:03;23.80;54.50
21580;DHT22;10951;59.656;9.666;2022-08-11T08:22:30;23.70;54.40
21580;DHT22;10951;59.656;9.666;2022-08-11T08:25:05;23.80;54.70
21580;DHT22;10951;59.656;9.666;2022-08-11T08:27:34;24.00;54.40
21580;DHT22;10951;59.656;9.666;2022-08-11T08:30:02;24.00;54.40
21580;DHT22;10951;59.656;9.666;2022-08-11T08:32:49;24.10;54.60
21580;DHT22;10951;59.656;9.666;2022-08-11T08:35:17;24.20;54.10
21580;DHT22;10951;59.656;9.666;2022-08-11T08:37:44;24.30;53.80
21580;DHT22;10951;59.656;9.666;2022-08-11T08:40:13;24.50;54.30
21580;DHT22;10951;59.656;9.666;2022-08-11T08:42:53;24.70;53.30
21580;DHT22;10951;59.656;9.666;2022-08-11T08:45:22;24.80;53.40
21580;DHT22;10951;59.656;9.666;2022-08-11T08:48:02;24.90;53.20
21580;DHT22;10951;59.656;9.666;2022-08-11T08:50:34;25.00;53.10
21580;DHT22;10951;59.656;9.666;2022-08-11T08:53:26;25.00;52.90
21580;DHT22;10951;59.656;9.666;2022-08-11T08:55:59;25.00;52.90
21580;DHT22;10951;59.656;9.666;2022-08-11T08:58:26;25.10;52.60
21580;DHT22;10951;59.656;9.666;2022-08-11T09:00:55;25.20;52.40
21580;DHT22;10951;59.656;9.666;2022-08-11T09:03:24;25.20;53.10
21580;DHT22;10951;59.656;9.666;2022-08-11T09:06:14;25.30;52.90
21580;DHT22;10951;59.656;9.666;2022-08-11T09:08:43;25.40;52.10
21580;DHT22;10951;59.656;9.666;2022-08-11T09:11:12;25.50;51.60
21580;DHT22;10951;59.656;9.666;2022-08-11T09:14:00;25.60;51.80
21580;DHT22;10951;59.656;9.666;2022-08-11T09:16:34;25.70;51.80
21580;DHT22;10951;59.656;9.666;2022-08-11T09:19:02;25.60;51.70
21580;DHT22;10951;59.656;9.666;2022-08-11T09:21:29;25.60;51.60
21580;DHT22;10951;59.656;9.666;2022-08-11T09:24:16;25.60;51.20
21580;DHT22;10951;59.656;9.666;2022-08-11T09:27:07;25.70;51.70
21580;DHT22;10951;59.656;9.666;2022-08-11T09:29:34;25.80;51.40
21580;DHT22;10951;59.656;9.666;2022-08-11T09:32:04;25.80;51.00
21580;DHT22;10951;59.656;9.666;2022-08-11T09:34:34;25.70;50.50
21580;DHT22;10951;59.656;9.666;2022-08-11T09:37:04;25.80;51.20
21580;DHT22;10951;59.656;9.666;2022-08-11T09:40:12;25.90;51.40
21580;DHT22;10951;59.656;9.666;2022-08-11T09:43:00;26.00;51.80
21580;DHT22;10951;59.656;9.666;2022-08-11T09:45:48;26.10;51.40
21580;DHT22;10951;59.656;9.666;2022-08-11T09:48:18;26.30;50.40
21580;DHT22;10951;59.656;9.666;2022-08-11T09:50:49;26.40;51.00
21580;DHT22;10951;59.656;9.666;2022-08-11T09:53:17;26.50;50.60
21580;DHT22;10951;59.656;9.666;2022-08-11T09:56:16;26.50;50.30
21580;DHT22;10951;59.656;9.666;2022-08-11T09:59:03;26.50;49.30
21580;DHT22;10951;59.656;9.666;2022-08-11T10:01:56;26.40;49.30
21580;DHT22;10951;59.656;9.666;2022-08-11T10:04:26;26.50;50.20
21580;DHT22;10951;59.656;9.666;2022-08-11T10:06:59;26.50;50.00
21580;DHT22;10951;59.656;9.666;2022-08-11T10:10:01;26.60;49.80
21580;DHT22;10951;59.656;9.666;2022-08-11T10:12:33;26.70;50.20
21580;DHT22;10951;59.656;9.666;2022-08-11T10:15:07;26.90;49.10
21580;DHT22;10951;59.656;9.666;2022-08-11T10:17:57;26.90;49.10
21580;DHT22;10951;59.656;9.666;2022-08-11T10:20:51;26.90;48.80
21580;DHT22;10951;59.656;9.666;2022-08-11T10:23:20;27.10;49.80
21580;DHT22;10951;59.656;9.666;2022-08-11T10:26:28;27.20;50.00
21580;DHT22;10951;59.656;9.666;2022-08-11T10:29:14;27.30;48.90
21580;DHT22;10951;59.656;9.666;2022-08-11T10:32:04;27.40;48.10
21580;DHT22;10951;59.656;9.666;2022-08-11T10:34:58;27.50;48.80
21580;DHT22;10951;59.656;9.666;2022-08-11T10:37:26;27.70;48.30
21580;DHT22;10951;59.656;9.666;2022-08-11T10:40:21;27.60;47.30
21580;DHT22;10951;59.656;9.666;2022-08-11T10:42:53;27.40;47.40
21580;DHT22;10951;59.656;9.666;2022-08-11T10:45:34;27.40;49.20
21580;DHT22;10951;59.656;9.666;2022-08-11T10:48:23;27.50;49.50
21580;DHT22;10951;59.656;9.666;2022-08-11T10:50:51;27.50;47.90
21580;DHT22;10951;59.656;9.666;2022-08-11T10:53:47;27.40;47.80
21580;DHT22;10951;59.656;9.666;2022-08-11T10:56:38;27.50;48.50
21580;DHT22;10951;59.656;9.666;2022-08-11T10:59:27;27.60;47.20
21580;DHT22;10951;59.656;9.666;2022-08-11T11:01:56;27.70;47.60
21580;DHT22;10951;59.656;9.666;2022-08-11T11:07:26;27.70;48.30
21580;DHT22;10951;59.656;9.666;2022-08-11T11:10:02;27.70;46.60
21580;DHT22;10951;59.656;9.666;2022-08-11T11:12:43;27.70;46.60
21580;DHT22;10951;59.656;9.666;2022-08-11T11:15:31;27.70;46.60
21580;DHT22;10951;59.656;9.666;2022-08-11T11:18:36;27.80;47.00
21580;DHT22;10951;59.656;9.666;2022-08-11T11:21:14;27.80;47.00
21580;DHT22;10951;59.656;9.666;2022-08-11T11:24:05;27.80;46.60
21580;DHT22;10951;59.656;9.666;2022-08-11T11:26:57;27.80;47.30
21580;DHT22;10951;59.656;9.666;2022-08-11T11:32:50;27.70;46.70
21580;DHT22;10951;59.656;9.666;2022-08-11T11:38:11;28.00;46.80
21580;DHT22;10951;59.656;9.666;2022-08-11T11:40:40;28.00;45.70
21580;DHT22;10951;59.656;9.666;2022-08-11T11:43:07;28.10;47.00
21580;DHT22;10951;59.656;9.666;2022-08-11T11:45:34;28.20;46.20
21580;DHT22;10951;59.656;9.666;2022-08-11T11:48:02;28.10;46.30
21580;DHT22;10951;59.656;9.666;2022-08-11T11:50:33;28.20;46.40
21580;DHT22;10951;59.656;9.666;2022-08-11T11:53:05;28.30;47.10
21580;DHT22;10951;59.656;9.666;2022-08-11T11:55:33;28.30;46.80
21580;DHT22;10951;59.656;9.666;2022-08-11T11:58:02;28.30;45.60
21580;DHT22;10951;59.656;9.666;2022-08-11T12:00:49;28.30;46.10
21580;DHT22;10951;59.656;9.666;2022-08-11T12:03:37;28.20;46.00
21580;DHT22;10951;59.656;9.666;2022-08-11T12:06:07;28.20;46.50
21580;DHT22;10951;59.656;9.666;2022-08-11T12:08:36;28.30;46.70
21580;DHT22;10951;59.656;9.666;2022-08-11T12:11:06;28.60;46.50
21580;DHT22;10951;59.656;9.666;2022-08-11T12:13:56;28.70;45.50
21580;DHT22;10951;59.656;9.666;2022-08-11T12:16:24;28.70;44.60
21580;DHT22;10951;59.656;9.666;2022-08-11T12:19:08;28.50;45.10
21580;DHT22;10951;59.656;9.666;2022-08-11T12:21:38;28.60;45.10
21580;DHT22;10951;59.656;9.666;2022-08-11T12:24:28;28.60;44.80
21580;DHT22;10951;59.656;9.666;2022-08-11T12:27:14;28.80;44.70
21580;DHT22;10951;59.656;9.666;2022-08-11T12:30:02;29.00;44.20
21580;DHT22;10951;59.656;9.666;2022-08-11T12:32:36;29.00;44.00
21580;DHT22;10951;59.656;9.666;2022-08-11T12:35:05;28.90;44.10
21580;DHT22;10951;59.656;9.666;2022-08-11T12:37:41;29.10;44.80
21580;DHT22;10951;59.656;9.666;2022-08-11T12:40:12;29.10;45.00
21580;DHT22;10951;59.656;9.666;2022-08-11T12:43:21;29.20;44.10
21580;DHT22;10951;59.656;9.666;2022-08-11T12:46:15;29.10;42.40
21580;DHT22;10951;59.656;9.666;2022-08-11T12:48:47;29.10;43.50
21580;DHT22;10951;59.656;9.666;2022-08-11T12:51:39;29.10;43.20
21580;DHT22;10951;59.656;9.666;2022-08-11T12:54:59;29.20;43.20
21580;DHT22;10951;59.656;9.666;2022-08-11T12:57:46;29.40;42.40
21580;DHT22;10951;59.656;9.666;2022-08-11T13:00:49;29.40;41.90
21580;DHT22;10951;59.656;9.666;2022-08-11T13:03:38;29.50;42.60
21580;DHT22;10951;59.656;9.666;2022-08-11T13:06:24;29.50;40.90
21580;DHT22;10951;59.656;9.666;2022-08-11T13:08:51;29.60;41.70
21580;DHT22;10951;59.656;9.666;2022-08-11T13:11:26;29.60;40.20
21580;DHT22;10951;59.656;9.666;2022-08-11T13:14:24;29.60;40.40
21580;DHT22;10951;59.656;9.666;2022-08-11T13:16:52;29.60;39.10
21580;DHT22;10951;59.656;9.666;2022-08-11T13:19:37;29.60;39.20
21580;DHT22;10951;59.656;9.666;2022-08-11T13:22:10;29.60;38.90
21580;DHT22;10951;59.656;9.666;2022-08-11T13:24:38;29.60;39.80
21580;DHT22;10951;59.656;9.666;2022-08-11T13:27:06;29.70;39.50
21580;DHT22;10951;59.656;9.666;2022-08-11T13:29:33;29.80;39.80
21580;DHT22;10951;59.656;9.666;2022-08-11T13:32:02;29.90;38.50
21580;DHT22;10951;59.656;9.666;2022-08-11T13:34:29;29.80;38.40
21580;DHT22;10951;59.656;9.666;2022-08-11T13:37:01;29.80;38.30
21580;DHT22;10951;59.656;9.666;2022-08-11T13:39:32;29.80;39.20
21580;DHT22;10951;59.656;9.666;2022-08-11T13:42:02;29.80;38.50
21580;DHT22;10951;59.656;9.666;2022-08-11T13:44:32;29.80;38.70
21580;DHT22;10951;59.656;9.666;2022-08-11T13:47:02;29.70;37.90
21580;DHT22;10951;59.656;9.666;2022-08-11T13:49:35;29.80;38.70
21580;DHT22;10951;59.656;9.666;2022-08-11T13:52:09;29.80;39.40
21580;DHT22;10951;59.656;9.666;2022-08-11T13:54:39;29.90;38.90
21580;DHT22;10951;59.656;9.666;2022-08-11T13:57:08;29.90;39.00
21580;DHT22;10951;59.656;9.666;2022-08-11T13:59:58;29.80;39.40
21580;DHT22;10951;59.656;9.666;2022-08-11T14:02:41;29.80;39.50
21580;DHT22;10951;59.656;9.666;2022-08-11T14:05:17;29.90;39.00
21580;DHT22;10951;59.656;9.666;2022-08-11T14:08:13;30.00;39.40
21580;DHT22;10951;59.656;9.666;2022-08-11T14:11:02;30.00;40.00
21580;DHT22;10951;59.656;9.666;2022-08-11T14:14:12;29.90;40.20
21580;DHT22;10951;59.656;9.666;2022-08-11T14:16:41;30.00;40.80
21580;DHT22;10951;59.656;9.666;2022-08-11T14:19:12;29.90;40.50
21580;DHT22;10951;59.656;9.666;2022-08-11T14:21:42;29.80;39.50
21580;DHT22;10951;59.656;9.666;2022-08-11T14:24:38;29.90;40.60
21580;DHT22;10951;59.656;9.666;2022-08-11T14:27:08;29.90;40.30
21580;DHT22;10951;59.656;9.666;2022-08-11T14:29:57;29.90;40.70
21580;DHT22;10951;59.656;9.666;2022-08-11T14:32:24;29.90;39.80
21580;DHT22;10951;59.656;9.666;2022-08-11T14:34:53;29.70;40.30
21580;DHT22;10951;59.656;9.666;2022-08-11T14:37:22;29.70;40.00
21580;DHT22;10951;59.656;9.666;2022-08-11T14:39:52;29.70;40.50
21580;DHT22;10951;59.656;9.666;2022-08-11T14:42:26;29.80;40.80
21580;DHT22;10951;59.656;9.666;2022-08-11T14:45:15;29.80;40.20
21580;DHT22;10951;59.656;9.666;2022-08-11T14:48:21;29.80;40.00
21580;DHT22;10951;59.656;9.666;2022-08-11T14:50:48;29.80;40.40
21580;DHT22;10951;59.656;9.666;2022-08-11T14:53:16;29.80;40.80
21580;DHT22;10951;59.656;9.666;2022-08-11T14:55:44;29.80;40.80
21580;DHT22;10951;59.656;9.666;2022-08-11T14:58:31;29.90;40.80
21580;DHT22;10951;59.656;9.666;2022-08-11T15:01:00;30.10;40.70
21580;DHT22;10951;59.656;9.666;2022-08-11T15:03:30;30.10;39.50
21580;DHT22;10951;59.656;9.666;2022-08-11T15:06:00;30.00;40.20
21580;DHT22;10951;59.656;9.666;2022-08-11T15:08:30;30.00;39.70
21580;DHT22;10951;59.656;9.666;2022-08-11T15:11:17;29.90;39.70
21580;DHT22;10951;59.656;9.666;2022-08-11T15:14:05;29.90;39.80
21580;DHT22;10951;59.656;9.666;2022-08-11T15:16:35;29.90;39.00
21580;DHT22;10951;59.656;9.666;2022-08-11T15:19:22;29.90;38.90
21580;DHT22;10951;59.656;9.666;2022-08-11T15:21:50;29.80;39.60
21580;DHT22;10951;59.656;9.666;2022-08-11T15:24:35;29.80;40.00
21580;DHT22;10951;59.656;9.666;2022-08-11T15:27:11;29.80;40.10
21580;DHT22;10951;59.656;9.666;2022-08-11T15:29:59;29.80;39.70
21580;DHT22;10951;59.656;9.666;2022-08-11T15:33:07;29.90;40.10
21580;DHT22;10951;59.656;9.666;2022-08-11T15:35:54;29.90;40.20
21580;DHT22;10951;59.656;9.666;2022-08-11T15:38:46;30.00;40.10
21580;DHT22;10951;59.656;9.666;2022-08-11T15:41:26;30.10;39.50
21580;DHT22;10951;59.656;9.666;2022-08-11T15:44:27;29.90;39.10
21580;DHT22;10951;59.656;9.666;2022-08-11T15:47:37;30.00;39.60
21580;DHT22;10951;59.656;9.666;2022-08-11T15:50:12;30.20;39.10
21580;DHT22;10951;59.656;9.666;2022-08-11T15:53:32;30.30;39.50
21580;DHT22;10951;59.656;9.666;2022-08-11T15:55:34;30.30;39.50
21580;DHT22;10951;59.656;9.666;2022-08-11T15:58:07;30.30;39.20
21580;DHT22;10951;59.656;9.666;2022-08-11T16:00:54;30.30;40.10
21580;DHT22;10951;59.656;9.666;2022-08-11T16:03:50;30.30;39.70
21580;DHT22;10951;59.656;9.666;2022-08-11T16:06:56;30.10;39.60
21580;DHT22;10951;59.656;9.666;2022-08-11T16:12:18;29.90;41.90
21580;DHT22;10951;59.656;9.666;2022-08-11T16:14:50;29.80;42.50
21580;DHT22;10951;59.656;9.666;2022-08-11T16:17:45;29.80;43.30
21580;DHT22;10951;59.656;9.666;2022-08-11T16:20:14;29.60;43.30
21580;DHT22;10951;59.656;9.666;2022-08-11T16:22:44;29.30;43.70
21580;DHT22;10951;59.656;9.666;2022-08-11T16:25:29;29.10;44.50
21580;DHT22;10951;59.656;9.666;2022-08-11T16:28:19;29.00;44.50
21580;DHT22;10951;59.656;9.666;2022-08-11T16:30:48;29.00;44.80
21580;DHT22;10951;59.656;9.666;2022-08-11T16:33:16;28.90;44.60
21580;DHT22;10951;59.656;9.666;2022-08-11T16:36:04;28.80;44.80
21580;DHT22;10951;59.656;9.666;2022-08-11T16:38:52;28.80;45.20
21580;DHT22;10951;59.656;9.666;2022-08-11T16:41:23;28.80;45.60
21580;DHT22;10951;59.656;9.666;2022-08-11T16:44:10;28.60;45.80
21580;DHT22;10951;59.656;9.666;2022-08-11T16:47:09;28.50;46.10
21580;DHT22;10951;59.656;9.666;2022-08-11T16:49:43;28.40;46.20
21580;DHT22;10951;59.656;9.666;2022-08-11T16:52:20;28.30;46.30
21580;DHT22;10951;59.656;9.666;2022-08-11T16:54:48;28.20;46.50
21580;DHT22;10951;59.656;9.666;2022-08-11T16:57:19;28.10;46.60
21580;DHT22;10951;59.656;9.666;2022-08-11T17:00:07;28.00;46.60
21580;DHT22;10951;59.656;9.666;2022-08-11T17:02:44;27.80;46.70
21580;DHT22;10951;59.656;9.666;2022-08-11T17:05:33;27.70;46.90
21580;DHT22;10951;59.656;9.666;2022-08-11T17:08:34;27.50;46.90
21580;DHT22;10951;59.656;9.666;2022-08-11T17:11:29;27.40;47.80
21580;DHT22;10951;59.656;9.666;2022-08-11T17:14:48;27.30;47.20
21580;DHT22;10951;59.656;9.666;2022-08-11T17:17:26;27.40;47.20
21580;DHT22;10951;59.656;9.666;2022-08-11T17:19:56;27.30;47.50
21580;DHT22;10951;59.656;9.666;2022-08-11T17:22:44;27.30;47.30
21580;DHT22;10951;59.656;9.666;2022-08-11T17:25:31;27.30;47.50
21580;DHT22;10951;59.656;9.666;2022-08-11T17:28:20;27.30;47.70
21580;DHT22;10951;59.656;9.666;2022-08-11T17:30:51;27.30;47.40
21580;DHT22;10951;59.656;9.666;2022-08-11T17:33:50;27.30;48.10
21580;DHT22;10951;59.656;9.666;2022-08-11T17:36:36;27.40;47.80
21580;DHT22;10951;59.656;9.666;2022-08-11T17:39:11;27.40;47.50
21580;DHT22;10951;59.656;9.666;2022-08-11T17:41:39;27.30;47.30
21580;DHT22;10951;59.656;9.666;2022-08-11T17:44:27;27.30;47.40
21580;DHT22;10951;59.656;9.666;2022-08-11T17:47:13;27.30;47.70
21580;DHT22;10951;59.656;9.666;2022-08-11T17:49:59;27.20;47.80
21580;DHT22;10951;59.656;9.666;2022-08-11T17:52:44;27.20;47.90
21580;DHT22;10951;59.656;9.666;2022-08-11T17:55:34;27.10;47.90
21580;DHT22;10951;59.656;9.666;2022-08-11T17:58:20;27.10;48.00
21580;DHT22;10951;59.656;9.666;2022-08-11T18:01:08;26.90;48.20
21580;DHT22;10951;59.656;9.666;2022-08-11T18:03:40;26.80;48.60
21580;DHT22;10951;59.656;9.666;2022-08-11T18:06:23;26.70;48.30
21580;DHT22;10951;59.656;9.666;2022-08-11T18:09:02;26.50;48.40
21580;DHT22;10951;59.656;9.666;2022-08-11T18:11:49;26.50;48.70
21580;DHT22;10951;59.656;9.666;2022-08-11T18:14:41;26.30;48.50
21580;DHT22;10951;59.656;9.666;2022-08-11T18:17:28;26.30;48.90
21580;DHT22;10951;59.656;9.666;2022-08-11T18:20:14;26.30;48.70
21580;DHT22;10951;59.656;9.666;2022-08-11T18:23:02;26.20;48.90
21580;DHT22;10951;59.656;9.666;2022-08-11T18:26:09;26.20;48.80
21580;DHT22;10951;59.656;9.666;2022-08-11T18:28:56;26.10;49.10
21580;DHT22;10951;59.656;9.666;2022-08-11T18:31:47;26.00;49.40
21580;DHT22;10951;59.656;9.666;2022-08-11T18:34:37;26.00;49.70
21580;DHT22;10951;59.656;9.666;2022-08-11T18:37:31;25.90;49.80
21580;DHT22;10951;59.656;9.666;2022-08-11T18:40:21;25.80;50.10
21580;DHT22;10951;59.656;9.666;2022-08-11T18:43:09;25.60;50.20
21580;DHT22;10951;59.656;9.666;2022-08-11T18:46:06;25.50;50.50
21580;DHT22;10951;59.656;9.666;2022-08-11T18:49:14;25.40;50.50
21580;DHT22;10951;59.656;9.666;2022-08-11T18:52:19;25.30;50.70
21580;DHT22;10951;59.656;9.666;2022-08-11T18:55:09;25.10;51.00
21580;DHT22;10951;59.656;9.666;2022-08-11T18:57:57;24.80;51.20
21580;DHT22;10951;59.656;9.666;2022-08-11T19:00:45;24.60;51.50
21580;DHT22;10951;59.656;9.666;2022-08-11T19:03:32;24.50;51.80
21580;DHT22;10951;59.656;9.666;2022-08-11T19:06:21;24.30;51.80
21580;DHT22;10951;59.656;9.666;2022-08-11T19:09:12;24.20;51.90
21580;DHT22;10951;59.656;9.666;2022-08-11T19:11:58;24.10;52.20
21580;DHT22;10951;59.656;9.666;2022-08-11T19:14:45;24.00;52.30
21580;DHT22;10951;59.656;9.666;2022-08-11T19:17:35;23.80;52.40
21580;DHT22;10951;59.656;9.666;2022-08-11T19:20:24;23.80;52.50
21580;DHT22;10951;59.656;9.666;2022-08-11T19:23:15;23.70;52.50
21580;DHT22;10951;59.656;9.666;2022-08-11T19:26:01;23.70;52.70
21580;DHT22;10951;59.656;9.666;2022-08-11T19:28:49;23.60;52.70
21580;DHT22;10951;59.656;9.666;2022-08-11T19:31:55;23.50;53.00
21580;DHT22;10951;59.656;9.666;2022-08-11T19:34:41;23.40;53.80
21580;DHT22;10951;59.656;9.666;2022-08-11T19:37:28;23.30;53.50
21580;DHT22;10951;59.656;9.666;2022-08-11T19:40:15;23.20;53.70
21580;DHT22;10951;59.656;9.666;2022-08-11T19:43:02;23.20;53.70
21580;DHT22;10951;59.656;9.666;2022-08-11T19:45:55;23.10;53.80
21580;DHT22;10951;59.656;9.666;2022-08-11T19:48:42;23.00;53.60
21580;DHT22;10951;59.656;9.666;2022-08-11T19:51:29;23.00;53.90
21580;DHT22;10951;59.656;9.666;2022-08-11T19:54:27;22.90;53.90
21580;DHT22;10951;59.656;9.666;2022-08-11T19:57:13;22.80;54.20
21580;DHT22;10951;59.656;9.666;2022-08-11T20:00:09;22.70;54.40
21580;DHT22;10951;59.656;9.666;2022-08-11T20:03:00;22.60;54.60
21580;DHT22;10951;59.656;9.666;2022-08-11T20:05:48;22.50;54.80
21580;DHT22;10951;59.656;9.666;2022-08-11T20:08:35;22.40;54.70
21580;DHT22;10951;59.656;9.666;2022-08-11T20:11:25;22.40;54.80
21580;DHT22;10951;59.656;9.666;2022-08-11T20:14:12;22.30;54.90
21580;DHT22;10951;59.656;9.666;2022-08-11T20:16:59;22.20;55.10
21580;DHT22;10951;59.656;9.666;2022-08-11T20:19:46;22.10;55.30
21580;DHT22;10951;59.656;9.666;2022-08-11T20:22:33;22.00;55.70